17 août 2022

Temps Code Temps Temp. Vue Base cloud Vent METAR/SPECI
05:00
V
17 °C 10 km+ 4.200 ft 150° 150° 4 kt METAR LFOP 170300Z AUTO 15004KT 9999 FEW021/// BKN042/// OVC050/// ///CB 17/15 Q1009
04:30
V
16 °C 10 km+ - 090° 090° 5 kt METAR LFOP 170230Z AUTO 09005KT 9999 ///CB 16/15 Q1009
04:00
V
16 °C 10 km+ - 130° 130° 3 kt METAR LFOP 170200Z AUTO 13003KT 9999 //////CB 16/14 Q1009
03:30
V
16 °C 10 km+ - Var Var 2 kt METAR LFOP 170130Z AUTO VRB02KT CAVOK 16/14 Q1008
03:00
V
17 °C 10 km+ - 110° 110° 5 kt METAR LFOP 170100Z AUTO 11005KT CAVOK 17/14 Q1008
02:30
V
17 °C 10 km+ - 110° 110° 4 kt METAR LFOP 170030Z AUTO 11004KT CAVOK 17/14 Q1009
02:00
V
16 °C 10 km+ - Var Var 2 kt METAR LFOP 170000Z AUTO VRB02KT CAVOK 16/13 Q1009
01:30
V
17 °C 10 km+ - 120° 120° 5 kt METAR LFOP 162330Z AUTO 12005KT 9999 ///TCU 17/13 Q1009
01:00
V
18 °C 10 km+ - 110° 110° 7 kt METAR LFOP 162300Z AUTO 11007KT 9999 ///CB 18/14 Q1010
00:30
V
18 °C 10 km+ - 110° 110° 7 kt METAR LFOP 162230Z AUTO 11007KT CAVOK 18/14 Q1009
00:00
V
18 °C 10 km+ - 110° 110° 6 kt METAR LFOP 162200Z AUTO 11006KT CAVOK 18/14 Q1009

16 août 2022

Temps Code Temps Temp. Vue Base cloud Vent METAR/SPECI
23:30
V
19 °C 10 km+ - 120° 120° 6 kt METAR LFOP 162130Z AUTO 12006KT CAVOK 19/13 Q1009
23:00
V
20 °C 10 km+ - 100° 100° 8 kt METAR LFOP 162100Z AUTO 10008KT CAVOK 20/13 Q1009
22:30
V
20 °C 10 km+ - 100° 100° 7 kt METAR LFOP 162030Z AUTO 10007KT CAVOK 20/14 Q1009 TEMPO 3000 SHRA BKN040CB
22:00
V
20 °C 10 km+ - 110° 110° 6 kt METAR LFOP 162000Z AUTO 11006KT CAVOK 20/14 Q1009 TEMPO 3000 SHRA BKN040CB
21:30
V
21 °C 10 km+ - 090° 090° 9 kt METAR LFOP 161930Z AUTO 09009KT CAVOK 21/14 Q1009 TEMPO 3000 SHRA BKN040CB
21:00
V
22 °C 10 km+ - 180° 180° 4 kt METAR LFOP 161900Z AUTO 18004KT CAVOK 22/15 Q1009 TEMPO 3000 SHRA BKN040CB
20:30
V
22 °C 10 km+ - 170° 170° 4 kt METAR LFOP 161830Z AUTO 17004KT CAVOK 22/15 Q1008 TEMPO 3000 SHRA BKN040CB
20:00
V
23 °C 10 km+ - 150° 150° 7 kt METAR LFOP 161800Z AUTO 15007KT CAVOK 23/15 Q1008 TEMPO 3000 SHRA BKN040CB
19:30
V
23 °C 10 km+ - 190° 190° 7 kt METAR LFOP 161730Z AUTO 19007KT 160V220 CAVOK 23/16 Q1008 TEMPO 3000 SHRA BKN040CB
19:00
V
24 °C 10 km+ 5.600 ft 170° 170° 6 kt METAR LFOP 161700Z AUTO 17006KT 9999 -RA SCT043/// BKN056/// BKN088/// //////CB 24/14 Q1008 TEMPO VRB15G30KT 3000 SHRA
18:30
V
24 °C 10 km+ 23.000 ft 150° 150° 9 kt METAR LFOP 161630Z AUTO 15009KT 120V180 9999 FEW046/// SCT096/// BKN230/// ///CB 24/14 Q1008 TEMPO VRB15G25KT 3000 SHRA
18:00
V
25 °C 10 km+ - 150° 150° 10 kt METAR LFOP 161600Z AUTO 15010KT 120V200 CAVOK 25/14 Q1008 TEMPO VRB15G25KT 3000 SHRA SCT025 BKN035CB
17:30
V
25 °C 10 km+ - 150° 150° 9 kt METAR LFOP 161530Z AUTO 15009KT 120V190 CAVOK 25/14 Q1008 TEMPO VRB15G25KT 3000 SHRA SCT025 BKN035CB
17:00
V
25 °C 10 km+ - 160° 160° 9 kt METAR LFOP 161500Z AUTO 16009KT 080V210 CAVOK 25/15 Q1008 TEMPO VRB15G25KT 3000 SHRA SCT025 BKN035CB
16:30
V
25 °C 10 km+ - 130° 130° 9 kt METAR LFOP 161430Z AUTO 13009KT 110V170 CAVOK 25/14 Q1008 TEMPO VRB15G25KT 3000 SHRA SCT025 BKN035CB
16:00
V
24 °C 10 km+ - 140° 140° 8 kt METAR LFOP 161400Z AUTO 14008KT 100V160 9999 FEW045 24/14 Q1009 TEMPO VRB15G25KT 3000 SHRA SCT025 BKN035CB
15:30
V
24 °C 10 km+ 10.000 ft 140° 140° 7 kt METAR LFOP 161330Z AUTO 14007KT 110V200 9999 FEW044 BKN100 24/14 Q1009 TEMPO VRB15G25KT 3000 SHRA SCT025 BKN035CB
15:00
V
24 °C 10 km+ 5.600 ft 140° 140° 8 kt METAR LFOP 161300Z AUTO 14008KT 110V170 9999 FEW032 BKN056 BKN110 24/14 Q1009 TEMPO VRB15G25KT 3000 SHRA SCT025 BKN035CB
14:30
V
23 °C 10 km+ 10.000 ft 170° 170° 5 kt METAR LFOP 161230Z AUTO 17005KT 150V260 9999 FEW036 BKN100 23/14 Q1009 TEMPO VRB15G25KT 3000 SHRA SCT025 BKN035CB
14:00
V
24 °C 10 km+ 6.600 ft 200° 200° 9 kt METAR LFOP 161200Z AUTO 20009KT 170V270 9999 SCT035 BKN066 24/14 Q1009 TEMPO VRB15G25KT 3000 SHRA SCT025 BKN035CB
13:30
V
24 °C 10 km+ - 200° 200° 10 kt METAR LFOP 161130Z AUTO 20010KT 9999 SCT036 SCT064 24/14 Q1009 TEMPO 3000 SHRA BKN035CB
13:00
V
23 °C 10 km+ - 190° 190° 10 kt METAR LFOP 161100Z AUTO 19010KT 160V230 9999 FEW036 23/14 Q1009 TEMPO 3000 SHRA BKN035CB
12:30
V
23 °C 10 km+ 4.800 ft 190° 190° 11 kt METAR LFOP 161030Z AUTO 19011KT 170V230 9999 FEW034 BKN048 BKN058 23/14 Q1009 TEMPO 3000 SHRA BKN035CB
12:00
V
23 °C 10 km+ 3.800 ft 190° 190° 13 kt METAR LFOP 161000Z AUTO 19013KT 9999 SCT032 BKN038 OVC050 23/14 Q1009 NOSIG
11:30
V
23 °C 10 km+ 3.000 ft 190° 190° 11 kt METAR LFOP 160930Z AUTO 19011KT 170V230 9999 BKN030 BKN170 23/14 Q1008 NOSIG
11:00
V
22 °C 10 km+ 21.000 ft 180° 180° 9 kt METAR LFOP 160900Z AUTO 18009KT 150V220 9999 FEW028 BKN210 22/15 Q1008 NOSIG
10:30
V
22 °C 10 km+ 14.000 ft 160° 160° 8 kt METAR LFOP 160830Z AUTO 16008KT 130V210 9999 FEW024 BKN140 BKN210 22/16 Q1008 NOSIG
10:00
V
20 °C 10 km+ - 170° 170° 9 kt METAR LFOP 160800Z AUTO 17009KT CAVOK 20/15 Q1008 NOSIG
09:30
V
20 °C 10 km+ - 150° 150° 8 kt METAR LFOP 160730Z AUTO 15008KT CAVOK 20/15 Q1008 NOSIG
09:00
V
19 °C 10 km+ - 160° 160° 8 kt METAR LFOP 160700Z AUTO 16008KT CAVOK 19/15 Q1007 NOSIG
08:30
V
19 °C 10 km+ - 140° 140° 7 kt METAR LFOP 160630Z AUTO 14007KT CAVOK 19/15 Q1007 NOSIG
08:00
V
18 °C 10 km+ - 140° 140° 5 kt METAR LFOP 160600Z AUTO 14005KT CAVOK 18/15 Q1007 NOSIG
07:30
V
18 °C 10 km+ 11.000 ft 130° 130° 3 kt METAR LFOP 160530Z AUTO 13003KT 9999 FEW042 BKN110 BKN140 18/15 Q1007 NOSIG
07:00
V
18 °C 10 km+ 14.000 ft 140° 140° 6 kt METAR LFOP 160500Z AUTO 14006KT 9999 SCT043 BKN140 18/15 Q1007
06:30
V
18 °C 10 km+ 11.000 ft 150° 150° 4 kt METAR LFOP 160430Z AUTO 15004KT 110V200 9999 FEW043 BKN110 BKN140 18/15 Q1007
06:00
V
18 °C 10 km+ - 120° 120° 6 kt METAR LFOP 160400Z AUTO 12006KT CAVOK 18/15 Q1007
05:30
V
19 °C 10 km+ - 100° 100° 3 kt METAR LFOP 160330Z AUTO 10003KT CAVOK 19/15 Q1007
05:00
V
18 °C 10 km+ - 110° 110° 4 kt METAR LFOP 160300Z AUTO 11004KT CAVOK 18/15 Q1007
04:30
V
18 °C 10 km+ 18.000 ft 140° 140° 5 kt METAR LFOP 160230Z AUTO 14005KT 9999 FEW044 SCT160 BKN180 18/15 Q1007
04:00
V
18 °C 10 km+ 11.000 ft 150° 150° 5 kt METAR LFOP 160200Z AUTO 15005KT 9999 SCT044 BKN110 OVC140 18/15 Q1007
03:30
V
18 °C 10 km+ - Var Var 2 kt METAR LFOP 160130Z AUTO VRB02KT CAVOK 18/14 Q1007
03:00
V
19 °C 10 km+ - 110° 110° 2 kt METAR LFOP 160100Z AUTO 11002KT CAVOK 19/14 Q1007
02:30
V
18 °C 10 km+ - Var Var 2 kt METAR LFOP 160030Z AUTO VRB02KT CAVOK 18/14 Q1008
02:00
V
19 °C 10 km+ - 040° 040° 2 kt METAR LFOP 160000Z AUTO 04002KT 9999 //////TCU 19/14 Q1008
01:30
V
19 °C 10 km+ - 050° 050° 1 kt METAR LFOP 152330Z AUTO 05001KT CAVOK 19/14 Q1008
01:00
V
20 °C 10 km+ - Var Var 1 kt METAR LFOP 152300Z AUTO VRB01KT CAVOK 20/14 Q1008
00:30
V
20 °C 10 km+ - Var Var 1 kt METAR LFOP 152230Z AUTO VRB01KT CAVOK 20/14 Q1008
00:00
V
21 °C 10 km+ - 310° 310° 4 kt METAR LFOP 152200Z AUTO 31004KT CAVOK 21/15 Q1008

15 août 2022

Temps Code Temps Temp. Vue Base cloud Vent METAR/SPECI
23:30
V
21 °C 10 km+ - 320° 320° 3 kt METAR LFOP 152130Z AUTO 32003KT CAVOK 21/15 Q1007
23:00
V
21 °C 10 km+ - 300° 300° 5 kt METAR LFOP 152100Z AUTO 30005KT CAVOK 21/15 Q1007
22:30
V
22 °C 10 km+ - 280° 280° 4 kt METAR LFOP 152030Z AUTO 28004KT CAVOK 22/15 Q1007
22:00
V
22 °C 10 km+ - 300° 300° 4 kt METAR LFOP 152000Z AUTO 30004KT 280V340 CAVOK 22/15 Q1007 TEMPO SHRA SCT050CB
21:30
V
22 °C 10 km+ - 290° 290° 5 kt METAR LFOP 151930Z AUTO 29005KT CAVOK 22/15 Q1006 TEMPO SHRA SCT050CB
21:00
V
22 °C 10 km+ - 260° 260° 5 kt METAR LFOP 151900Z AUTO 26005KT CAVOK 22/15 Q1006 TEMPO SHRA SCT050CB
20:30
V
23 °C 10 km+ - 250° 250° 6 kt METAR LFOP 151830Z AUTO 25006KT CAVOK 23/14 Q1006 TEMPO SHRA SCT050CB
20:00
V
24 °C 10 km+ - 260° 260° 8 kt METAR LFOP 151800Z AUTO 26008KT 220V280 CAVOK 24/14 Q1005 TEMPO SHRA SCT050CB
19:30
V
25 °C 10 km+ - 260° 260° 9 kt METAR LFOP 151730Z AUTO 26009KT 220V290 CAVOK 25/14 Q1005 NOSIG
19:00
V
25 °C 10 km+ - 260° 260° 8 kt METAR LFOP 151700Z AUTO 26008KT 200V310 CAVOK 25/14 Q1005 TEMPO 1200 TSRA BKN060CB
18:30
V
26 °C 10 km+ - 240° 240° 6 kt METAR LFOP 151630Z AUTO 24006KT 210V290 CAVOK 26/14 Q1005 TEMPO 1200 TSRA BKN060CB
18:00
V
25 °C 10 km+ - 240° 240° 7 kt METAR LFOP 151600Z AUTO 24007KT 210V270 9999 FEW038 25/15 Q1005 TEMPO 1200 TSRA BKN060CB
17:30
V
25 °C 10 km+ - 260° 260° 9 kt METAR LFOP 151530Z AUTO 26009KT CAVOK 25/15 Q1005 TEMPO 1200 TSRA BKN060CB
17:00
V
26 °C 10 km+ - 260° 260° 12 kt METAR LFOP 151500Z AUTO 26012KT 240V310 CAVOK 26/15 Q1005 TEMPO 1200 TSRA BKN060CB
16:30
V
26 °C 10 km+ - 250° 250° 9 kt METAR LFOP 151430Z AUTO 25009KT 230V310 CAVOK 26/13 Q1005 TEMPO 1200 TSRA BKN060CB
16:00
V
27 °C 10 km+ - 250° 250° 9 kt METAR LFOP 151400Z AUTO 25009KT 220V290 CAVOK 27/13 Q1005 TEMPO 1200 TSRA BKN060CB
15:30
V
26 °C 10 km+ 4.900 ft 260° 260° 8 kt METAR LFOP 151330Z AUTO 26008KT 210V300 9999 BKN049 BKN068 26/13 Q1005 TEMPO 1200 TSRA BKN060CB
15:00
V
26 °C 10 km+ - 270° 270° 7 kt METAR LFOP 151300Z AUTO 27007KT 210V320 CAVOK 26/13 Q1005 TEMPO 3000 SHRA BKN060CB
14:30
V
26 °C 10 km+ - 240° 240° 6 kt METAR LFOP 151230Z AUTO 24006KT 170V300 CAVOK 26/11 Q1005 TEMPO 3000 SHRA BKN060CB
14:00
V
26 °C 10 km+ - 260° 260° 7 kt METAR LFOP 151200Z AUTO 26007KT 180V330 CAVOK 26/12 Q1005 TEMPO 3000 SHRA BKN060CB
13:30
V
25 °C 10 km+ - 240° 240° 6 kt METAR LFOP 151130Z AUTO 24006KT 180V330 9999 FEW048 25/12 Q1005 TEMPO 3000 SHRA BKN060CB
13:00
V
25 °C 10 km+ - 210° 210° 9 kt METAR LFOP 151100Z AUTO 21009KT 170V240 9999 FEW038 25/13 Q1005 TEMPO 3000 SHRA BKN060CB
12:30
V
24 °C 10 km+ - 210° 210° 8 kt METAR LFOP 151030Z AUTO 21008KT 160V250 CAVOK 24/14 Q1005 TEMPO 3000 SHRA BKN060CB
12:00
V
23 °C 10 km+ - 220° 220° 6 kt METAR LFOP 151000Z AUTO 22006KT 160V270 9999 FEW028 23/15 Q1005 NOSIG
11:30
V
22 °C 10 km+ - 250° 250° 6 kt METAR LFOP 150930Z AUTO 25006KT 210V280 9999 FEW025 22/15 Q1005 NOSIG
11:00
V
22 °C 10 km+ - 220° 220° 7 kt METAR LFOP 150900Z AUTO 22007KT 9999 FEW021 22/15 Q1005 NOSIG
10:30
V
21 °C 10 km+ - 180° 180° 6 kt METAR LFOP 150830Z AUTO 18006KT 140V240 9999 FEW013 21/15 Q1005 NOSIG
10:00
V
20 °C 10 km+ - 170° 170° 5 kt METAR LFOP 150800Z AUTO 17005KT 130V200 CAVOK 20/16 Q1005 NOSIG
09:30
V
19 °C 10 km+ - 160° 160° 4 kt METAR LFOP 150730Z AUTO 16004KT 130V210 CAVOK 19/15 Q1005 NOSIG
09:00
V
18 °C 10 km+ - 150° 150° 5 kt METAR LFOP 150700Z AUTO 15005KT CAVOK 18/16 Q1005 TEMPO 0400 FG VV///
08:30
V
17 °C 8 km - Var Var 2 kt METAR LFOP 150630Z AUTO VRB02KT 8000 FEW001 17/16 Q1005 TEMPO 0400 FG VV///
08:00
L
16 °C 350 m - Var Var 2 kt METAR LFOP 150600Z AUTO VRB02KT 0400 0350 R22/1000U FG VV/// 16/15 Q1005 BECMG CAVOK
07:30
I
16 °C 4,1 km - 150° 150° 3 kt METAR LFOP 150530Z AUTO 15003KT 4100 BR NSC 16/15 Q1005
07:00
M
16 °C 6 km - 160° 160° 5 kt METAR LFOP 150500Z AUTO 16005KT 6000 NSC 16/15 Q1005
06:30
V
15 °C 8 km - 150° 150° 4 kt METAR LFOP 150430Z AUTO 15004KT 8000 NSC 15/14 Q1005
06:00
V
16 °C 9 km - 150° 150° 6 kt METAR LFOP 150400Z AUTO 15006KT 9000 NSC 16/15 Q1005
05:30
V
16 °C 10 km+ - 150° 150° 4 kt METAR LFOP 150330Z AUTO 15004KT CAVOK 16/14 Q1005
05:00
V
16 °C 10 km+ - 160° 160° 3 kt METAR LFOP 150300Z AUTO 16003KT CAVOK 16/15 Q1005
04:30
V
16 °C 10 km+ - 160° 160° 3 kt METAR LFOP 150230Z AUTO 16003KT CAVOK 16/15 Q1005
04:00
V
17 °C 10 km+ - 240° 240° 2 kt METAR LFOP 150200Z AUTO 24002KT CAVOK 17/15 Q1005
03:30
V
17 °C 10 km+ - 210° 210° 6 kt METAR LFOP 150130Z AUTO 21006KT CAVOK 17/15 Q1006
03:00
V
18 °C 10 km+ - 200° 200° 6 kt METAR LFOP 150100Z AUTO 20006KT CAVOK 18/15 Q1006
02:30
V
19 °C 10 km+ - 210° 210° 6 kt METAR LFOP 150030Z AUTO 21006KT CAVOK 19/15 Q1006
02:00
V
19 °C 10 km+ - 180° 180° 5 kt METAR LFOP 150000Z AUTO 18005KT CAVOK 19/15 Q1006
01:30
V
20 °C 10 km+ - 190° 190° 6 kt METAR LFOP 142330Z AUTO 19006KT CAVOK 20/15 Q1006
01:00
V
20 °C 10 km+ - 200° 200° 5 kt METAR LFOP 142300Z AUTO 20005KT CAVOK 20/15 Q1006
00:30
V
20 °C 10 km+ - 200° 200° 7 kt METAR LFOP 142230Z AUTO 20007KT CAVOK 20/15 Q1006
00:00
V
20 °C 10 km+ - 210° 210° 8 kt METAR LFOP 142200Z AUTO 21008KT CAVOK 20/15 Q1006

14 août 2022

Temps Code Temps Temp. Vue Base cloud Vent METAR/SPECI
23:30
V
20 °C 10 km+ - 200° 200° 4 kt METAR LFOP 142130Z AUTO 20004KT CAVOK 20/15 Q1006
23:00
V
21 °C 10 km+ 5.000 ft 220° 220° 5 kt METAR LFOP 142100Z AUTO 22005KT 9999 FEW044/// BKN050/// BKN100/// //////TCU 21/15 Q1006
22:30
V
21 °C 10 km+ 8.400 ft 230° 230° 5 kt METAR LFOP 142030Z AUTO 23005KT 9999 FEW042 BKN084 BKN100 21/15 Q1006 TEMPO VRB15G25KT 3000 SHRA BKN030 SCT060CB
22:00
V
21 °C 10 km+ - 230° 230° 5 kt METAR LFOP 142000Z AUTO 23005KT CAVOK 21/14 Q1006 TEMPO VRB15G25KT 3000 SHRA BKN030 SCT060CB
21:30
V
21 °C 10 km+ - 240° 240° 5 kt METAR LFOP 141930Z AUTO 24005KT CAVOK 21/14 Q1006 TEMPO VRB15G25KT 3000 SHRA BKN030 SCT060CB
Données plus anciennes

Nous et des tiers suivons ton comportement sur Internet sur notre site Web à l'aide de cookies. Si tu continues, nous supposons que tu acceptes notre politique en matière de cookies. Apprendre plus